createdAt,value
2022-12-08T00:00:09.323Z,46.83
2022-12-08T00:01:09.352Z,47.42
2022-12-08T00:02:09.511Z,46.45
2022-12-08T00:03:09.533Z,46.53
2022-12-08T00:04:09.344Z,46.86
2022-12-08T00:05:09.349Z,46.29
2022-12-08T00:06:09.330Z,46.56
2022-12-08T00:07:09.316Z,47.29
2022-12-08T00:08:09.392Z,47.51
2022-12-08T00:09:09.322Z,47.16
2022-12-08T00:10:39.522Z,47.74
2022-12-08T00:11:09.320Z,47.3
2022-12-08T00:12:09.311Z,47.26
2022-12-08T00:13:09.311Z,46.85
2022-12-08T00:14:09.334Z,46.92
2022-12-08T00:15:09.309Z,47.36
2022-12-08T00:16:09.428Z,47.16
2022-12-08T00:17:09.314Z,47.17
2022-12-08T00:18:09.321Z,47.17
2022-12-08T00:19:09.326Z,46.87
2022-12-08T00:20:09.311Z,46.9
2022-12-08T00:21:09.308Z,46.97
2022-12-08T00:22:09.308Z,46.81
2022-12-08T00:23:09.310Z,46.97
2022-12-08T00:24:09.332Z,46.72
2022-12-08T00:25:09.313Z,46.66
2022-12-08T00:26:09.316Z,46.52
2022-12-08T00:27:09.330Z,46.52
2022-12-08T00:28:09.329Z,46.62
2022-12-08T00:29:14.458Z,46.9
2022-12-08T00:30:09.326Z,46.74
2022-12-08T00:31:09.348Z,47.17
2022-12-08T00:32:09.429Z,46.79
2022-12-08T00:33:09.333Z,47.23
2022-12-08T00:34:09.444Z,46.59
2022-12-08T00:35:09.324Z,46.47
2022-12-08T00:36:09.338Z,46.41
2022-12-08T00:37:09.327Z,46.47
2022-12-08T00:38:09.329Z,47.2
2022-12-08T00:39:09.377Z,47.26
2022-12-08T00:40:09.337Z,47.25
2022-12-08T00:41:09.333Z,46.61
2022-12-08T00:42:09.325Z,47.28
2022-12-08T00:43:09.333Z,46.57
2022-12-08T00:44:09.353Z,46.51
2022-12-08T00:45:09.336Z,46.72
2022-12-08T00:46:09.422Z,46.94
2022-12-08T00:47:09.329Z,46.17
2022-12-08T00:48:09.325Z,46.39
2022-12-08T00:49:09.353Z,46.7
2022-12-08T00:50:09.315Z,46.2
2022-12-08T00:51:09.332Z,46.48
2022-12-08T00:52:09.334Z,47.13
2022-12-08T00:53:09.331Z,46.79
2022-12-08T00:54:09.345Z,46.73
2022-12-08T00:55:09.330Z,46.39
2022-12-08T00:56:09.328Z,46.62
2022-12-08T00:57:09.338Z,46.05
2022-12-08T00:58:09.338Z,46.23
2022-12-08T00:59:09.353Z,46.53
2022-12-08T01:00:09.323Z,46.24
2022-12-08T01:01:09.433Z,47.21
2022-12-08T01:02:09.378Z,47.13
2022-12-08T01:03:09.452Z,46.94
2022-12-08T01:04:09.498Z,46.88
2022-12-08T01:05:09.334Z,47.72
2022-12-08T01:06:09.336Z,46.82
2022-12-08T01:07:09.331Z,46.7
2022-12-08T01:08:09.443Z,46.62
2022-12-08T01:09:09.349Z,46.88
2022-12-08T01:10:09.331Z,46.24
2022-12-08T01:11:09.326Z,46.36
2022-12-08T01:12:09.333Z,46.36
2022-12-08T01:13:09.325Z,48.51
2022-12-08T01:14:09.342Z,48.51
2022-12-08T01:15:09.327Z,47.08
2022-12-08T01:16:09.433Z,46.92
2022-12-08T01:17:09.442Z,46.55
2022-12-08T01:18:09.334Z,47.36
2022-12-08T01:19:09.713Z,46.22
2022-12-08T01:20:09.310Z,46.78
2022-12-08T01:21:09.312Z,46.49
2022-12-08T01:22:09.318Z,46.37
2022-12-08T01:23:09.311Z,45.86
2022-12-08T01:24:09.328Z,45.82
2022-12-08T01:25:09.307Z,46.23
2022-12-08T01:26:09.331Z,46.14
2022-12-08T01:27:09.310Z,45.85
2022-12-08T01:28:09.308Z,45.76
2022-12-08T01:29:09.323Z,45.86
2022-12-08T01:30:09.325Z,46.25
2022-12-08T01:31:09.398Z,46.49
2022-12-08T01:32:09.312Z,46.7
2022-12-08T01:33:09.326Z,46.34
2022-12-08T01:34:09.329Z,46.45
2022-12-08T01:35:09.312Z,46.69
2022-12-08T01:36:09.317Z,47.42
2022-12-08T01:37:09.314Z,48.36
2022-12-08T01:38:09.318Z,47.95
2022-12-08T01:39:09.333Z,47.01
2022-12-08T01:40:09.317Z,47.38
2022-12-08T01:41:09.319Z,47.21
2022-12-08T01:42:09.311Z,47.01
2022-12-08T01:43:09.316Z,47.23
2022-12-08T01:44:09.330Z,47.06
2022-12-08T01:45:09.328Z,47.14
2022-12-08T01:46:09.463Z,47.35
2022-12-08T01:47:09.326Z,48.05
2022-12-08T01:48:09.455Z,47.79
2022-12-08T01:49:09.389Z,47.58
2022-12-08T01:50:09.325Z,47.88
2022-12-08T01:51:09.330Z,47.32
2022-12-08T01:52:09.328Z,47.09
2022-12-08T01:53:09.335Z,47.04
2022-12-08T01:54:09.343Z,46.65
2022-12-08T01:55:09.337Z,46.66
2022-12-08T01:56:09.335Z,46.73
2022-12-08T01:57:09.326Z,46.96
2022-12-08T01:58:09.323Z,46.95
2022-12-08T01:59:09.345Z,46.89
2022-12-08T02:00:09.314Z,47.07
2022-12-08T02:01:09.460Z,47.14
2022-12-08T02:02:09.402Z,46.93
2022-12-08T02:03:09.365Z,46.62
2022-12-08T02:04:09.352Z,46.35
2022-12-08T02:05:09.314Z,46.33
2022-12-08T02:06:09.328Z,46.73
2022-12-08T02:07:09.331Z,46.22
2022-12-08T02:08:09.522Z,46.54
2022-12-08T02:09:09.363Z,46.82
2022-12-08T02:10:09.337Z,47.41
2022-12-08T02:11:09.466Z,46.78
2022-12-08T02:12:09.330Z,46.56
2022-12-08T02:13:09.335Z,46.75
2022-12-08T02:14:09.348Z,46.94
2022-12-08T02:15:09.321Z,46.86
2022-12-08T02:16:09.494Z,46.98
2022-12-08T02:17:09.326Z,46.93
2022-12-08T02:18:09.340Z,46.8
2022-12-08T02:19:30.200Z,46.62
2022-12-08T02:20:09.321Z,46.76
2022-12-08T02:21:09.331Z,46.56
2022-12-08T02:22:09.336Z,46.44
2022-12-08T02:23:09.327Z,46.9
2022-12-08T02:24:09.343Z,46.53
2022-12-08T02:25:09.336Z,46.53
2022-12-08T02:26:09.323Z,47.02
2022-12-08T02:27:09.330Z,46.9
2022-12-08T02:28:09.336Z,46.54
2022-12-08T02:29:09.341Z,46.22
2022-12-08T02:30:09.316Z,46.37
2022-12-08T02:31:09.436Z,46.93
2022-12-08T02:32:09.341Z,46.46
2022-12-08T02:33:09.335Z,46.26
2022-12-08T02:34:09.399Z,46.42
2022-12-08T02:35:09.328Z,46.42
2022-12-08T02:36:09.317Z,46.97
2022-12-08T02:37:09.315Z,45.96
2022-12-08T02:38:09.317Z,46.54
2022-12-08T02:39:09.335Z,47.06
2022-12-08T02:40:09.365Z,46.83
2022-12-08T02:41:09.343Z,46.46
2022-12-08T02:42:09.317Z,47.25
2022-12-08T02:43:09.323Z,46.25
2022-12-08T02:44:09.333Z,46.8
2022-12-08T02:45:09.317Z,46.63
2022-12-08T02:46:09.403Z,45.97
2022-12-08T02:47:09.319Z,45.91
2022-12-08T02:48:09.319Z,45.64
2022-12-08T02:49:09.339Z,45.58
2022-12-08T02:50:09.331Z,45.91
2022-12-08T02:51:09.332Z,46.5
2022-12-08T02:52:09.324Z,46.16
2022-12-08T02:54:09.338Z,46.2
2022-12-08T02:55:09.323Z,45.55
2022-12-08T02:56:09.329Z,46.26
2022-12-08T02:57:09.349Z,46.42
2022-12-08T02:58:09.324Z,45.67
2022-12-08T02:59:09.344Z,45.82
2022-12-08T03:00:09.362Z,46.49
2022-12-08T03:01:09.465Z,47.11
2022-12-08T03:02:09.393Z,46.44
2022-12-08T03:03:09.448Z,47.51
2022-12-08T03:04:09.357Z,47.77
2022-12-08T03:05:09.332Z,46.26
2022-12-08T03:06:09.340Z,46.35
2022-12-08T03:07:09.335Z,46.24
2022-12-08T03:08:09.365Z,47.09
2022-12-08T03:09:09.352Z,47.2
2022-12-08T03:10:09.341Z,46.51
2022-12-08T03:11:09.342Z,46.1
2022-12-08T03:12:09.336Z,47.73
2022-12-08T03:13:09.330Z,47.02
2022-12-08T03:14:09.349Z,46.39
2022-12-08T03:15:09.340Z,41.3
2022-12-08T03:16:09.444Z,46.01
2022-12-08T03:17:09.342Z,46.89
2022-12-08T03:18:09.333Z,46.36
2022-12-08T03:19:09.350Z,46.48
2022-12-08T03:20:09.404Z,46.55
2022-12-08T03:21:09.332Z,46.89
2022-12-08T03:22:09.337Z,47.26
2022-12-08T03:23:09.411Z,46.72
2022-12-08T03:24:09.347Z,46.65
2022-12-08T03:25:09.316Z,46.65
2022-12-08T03:26:09.379Z,46.44
2022-12-08T03:27:09.336Z,46.6
2022-12-08T03:28:09.352Z,46.58
2022-12-08T03:29:09.433Z,47.62
2022-12-08T03:30:09.371Z,47.58
2022-12-08T03:31:09.395Z,47.53
2022-12-08T03:32:09.345Z,47.11
2022-12-08T03:33:09.337Z,46.32
2022-12-08T03:34:09.350Z,46.6
2022-12-08T03:35:09.331Z,46.77
2022-12-08T03:36:09.343Z,46.77
2022-12-08T03:37:09.341Z,46.77
2022-12-08T03:38:09.334Z,47.07
2022-12-08T03:39:09.346Z,46.63
2022-12-08T03:40:09.333Z,46.51
2022-12-08T03:41:09.332Z,47.09
2022-12-08T03:42:09.340Z,47.01
2022-12-08T03:43:09.335Z,47.18
2022-12-08T03:44:09.351Z,47.3
2022-12-08T03:45:09.340Z,47.31
2022-12-08T03:46:09.381Z,46.66
2022-12-08T03:47:09.334Z,46.41
2022-12-08T03:48:09.319Z,46.58
2022-12-08T03:49:09.349Z,47.35
2022-12-08T03:50:09.317Z,47.83
2022-12-08T03:51:09.321Z,47.81
2022-12-08T03:52:09.317Z,47.9
2022-12-08T03:53:09.327Z,47.62
2022-12-08T03:54:09.331Z,47.86
2022-12-08T03:55:09.325Z,47.13
2022-12-08T03:56:09.318Z,47.72
2022-12-08T03:57:09.328Z,47.64
2022-12-08T03:58:09.318Z,47.77
2022-12-08T03:59:09.337Z,47.17
2022-12-08T04:00:09.332Z,46.88
2022-12-08T04:01:09.338Z,46.21
2022-12-08T04:02:09.391Z,46.07
2022-12-08T04:03:09.384Z,46.14
2022-12-08T04:04:09.520Z,46.33
2022-12-08T04:05:09.322Z,46.75
2022-12-08T04:06:09.467Z,47
2022-12-08T04:07:09.321Z,46.71
2022-12-08T04:08:09.372Z,47.24
2022-12-08T04:09:09.337Z,47.11
2022-12-08T04:10:09.318Z,46.63
2022-12-08T04:11:09.336Z,46.9
2022-12-08T04:12:09.337Z,48.3
2022-12-08T04:13:09.329Z,47.5
2022-12-08T04:14:09.354Z,47.73
2022-12-08T04:15:09.326Z,47.46
2022-12-08T04:16:09.416Z,46.96
2022-12-08T04:17:09.337Z,46.92
2022-12-08T04:18:09.351Z,47.13
2022-12-08T04:19:09.356Z,47.13
2022-12-08T04:20:09.336Z,46.84
2022-12-08T04:21:09.319Z,46.77
2022-12-08T04:22:09.354Z,47.1
2022-12-08T04:23:11.995Z,47.52
2022-12-08T04:24:09.345Z,46.6
2022-12-08T04:25:09.347Z,46.74
2022-12-08T04:26:09.328Z,48.27
2022-12-08T04:27:09.343Z,47.03
2022-12-08T04:28:09.344Z,46.6
2022-12-08T04:29:09.360Z,46.93
2022-12-08T04:30:09.341Z,46.9
2022-12-08T04:31:09.456Z,47.13
2022-12-08T04:32:09.328Z,46.38
2022-12-08T04:33:09.335Z,46.62
2022-12-08T04:34:09.388Z,46.57
2022-12-08T04:35:09.333Z,46.36
2022-12-08T04:36:09.343Z,46.11
2022-12-08T04:37:09.421Z,46.26
2022-12-08T04:38:09.340Z,46.16
2022-12-08T04:39:09.356Z,46.6
2022-12-08T04:40:09.329Z,46.56
2022-12-08T04:41:09.342Z,46.38
2022-12-08T04:42:09.335Z,46.43
2022-12-08T04:43:09.336Z,46.88
2022-12-08T04:44:09.353Z,46.76
2022-12-08T04:45:09.327Z,46.76
2022-12-08T04:46:09.495Z,47.34
2022-12-08T04:47:09.389Z,46.44
2022-12-08T04:48:09.341Z,46.65
2022-12-08T04:49:09.357Z,46.55
2022-12-08T04:50:09.324Z,47.03
2022-12-08T04:51:09.334Z,46.49
2022-12-08T04:52:09.348Z,47.1
2022-12-08T04:53:09.328Z,46.71
2022-12-08T04:54:09.337Z,46.43
2022-12-08T04:55:09.325Z,47.19
2022-12-08T04:56:09.318Z,48.05
2022-12-08T04:57:09.317Z,47.43
2022-12-08T04:58:09.319Z,46.91
2022-12-08T04:59:09.333Z,46.88
2022-12-08T05:00:09.326Z,47.38
2022-12-08T05:01:09.392Z,47.38
2022-12-08T05:02:09.441Z,46.94
2022-12-08T05:03:09.323Z,47.11
2022-12-08T05:04:09.352Z,46.76
2022-12-08T05:05:09.323Z,47.74
2022-12-08T05:06:09.321Z,46.91
2022-12-08T05:07:09.322Z,47.63
2022-12-08T05:08:09.464Z,48.58
2022-12-08T05:09:09.344Z,46.58
2022-12-08T05:10:09.333Z,46.33
2022-12-08T05:11:09.331Z,47.01
2022-12-08T05:12:09.325Z,47.16
2022-12-08T05:13:09.327Z,45.72
2022-12-08T05:14:09.336Z,45.98
2022-12-08T05:15:09.327Z,46.62
2022-12-08T05:16:09.443Z,46.8
2022-12-08T05:17:09.844Z,46.48
2022-12-08T05:18:09.319Z,46.46
2022-12-08T05:19:09.356Z,46.34
2022-12-08T05:20:09.326Z,47.63
2022-12-08T05:21:09.319Z,47.63
2022-12-08T05:22:09.337Z,47.49
2022-12-08T05:23:09.339Z,45.12
2022-12-08T05:24:09.354Z,45.32
2022-12-08T05:25:09.330Z,46.12
2022-12-08T05:26:09.350Z,46.44
2022-12-08T05:27:09.359Z,46.57
2022-12-08T05:28:39.759Z,45.03
2022-12-08T05:29:09.354Z,45.74
2022-12-08T05:30:09.335Z,46.15
2022-12-08T05:31:09.443Z,45.65
2022-12-08T05:32:09.402Z,45.22
2022-12-08T05:33:09.347Z,45.74
2022-12-08T05:34:09.354Z,46.37
2022-12-08T05:35:09.339Z,45.95
2022-12-08T05:36:09.362Z,46.75
2022-12-08T05:37:09.340Z,46.7
2022-12-08T05:38:09.338Z,46.27
2022-12-08T05:39:09.409Z,43.31
2022-12-08T05:40:09.328Z,45.49
2022-12-08T05:41:09.341Z,45.83
2022-12-08T05:42:09.336Z,46.3
2022-12-08T05:43:09.348Z,46.76
2022-12-08T05:44:09.361Z,45.09
2022-12-08T05:45:09.342Z,45.71
2022-12-08T05:46:09.392Z,45.8
2022-12-08T05:47:09.336Z,45.86
2022-12-08T05:48:09.334Z,45.66
2022-12-08T05:49:09.338Z,44.53
2022-12-08T05:50:09.335Z,45.85
2022-12-08T05:51:09.334Z,46.08
2022-12-08T05:52:09.345Z,46.68
2022-12-08T05:53:09.349Z,45.8
2022-12-08T05:54:09.351Z,44.64
2022-12-08T05:55:09.345Z,45.27
2022-12-08T05:56:09.337Z,44.7
2022-12-08T05:57:09.352Z,44.82
2022-12-08T05:58:09.343Z,45.6
2022-12-08T05:59:09.370Z,45.6
2022-12-08T06:00:09.411Z,45.16
2022-12-08T06:01:09.387Z,45.14
2022-12-08T06:02:09.484Z,45.1
2022-12-08T06:03:09.339Z,45.29
2022-12-08T06:04:09.403Z,46.11
2022-12-08T06:05:09.331Z,45.87
2022-12-08T06:06:09.336Z,45.92
2022-12-08T06:07:14.550Z,46.36
2022-12-08T06:08:09.387Z,46.44
2022-12-08T06:09:09.352Z,44.6
2022-12-08T06:10:09.433Z,45.15
2022-12-08T06:11:09.337Z,46.03
2022-12-08T06:12:09.316Z,46.71
2022-12-08T06:13:09.326Z,45.6
2022-12-08T06:14:09.333Z,46.26
2022-12-08T06:15:09.317Z,46.55
2022-12-08T06:16:09.418Z,46.2
2022-12-08T06:17:09.360Z,46.56
2022-12-08T06:18:09.325Z,45.67
2022-12-08T06:19:09.345Z,46.25
2022-12-08T06:20:09.330Z,46.54
2022-12-08T06:21:09.322Z,46.05
2022-12-08T06:22:09.326Z,46.2
2022-12-08T06:23:09.324Z,45.99
2022-12-08T06:24:09.378Z,43.99
2022-12-08T06:25:10.280Z,45.33
2022-12-08T06:26:09.320Z,45.3
2022-12-08T06:27:09.322Z,45.61
2022-12-08T06:28:09.326Z,44.3
2022-12-08T06:29:09.336Z,47.05
2022-12-08T06:30:09.329Z,45.89
2022-12-08T06:31:09.357Z,44.63
2022-12-08T06:32:09.384Z,44.6
2022-12-08T06:33:09.334Z,46.59
2022-12-08T06:34:09.356Z,46.11
2022-12-08T06:35:09.341Z,46.29
2022-12-08T06:36:09.345Z,45.69
2022-12-08T06:37:09.342Z,46.3
2022-12-08T06:38:09.346Z,46.75
2022-12-08T06:39:09.351Z,45.73
2022-12-08T06:40:09.335Z,44.44
2022-12-08T06:41:09.339Z,44.95
2022-12-08T06:42:09.336Z,44.25
2022-12-08T06:43:09.336Z,46.76
2022-12-08T06:44:09.356Z,46.51
2022-12-08T06:45:09.336Z,45.81
2022-12-08T06:46:09.417Z,46.03
2022-12-08T06:47:09.328Z,45.54
2022-12-08T06:48:09.336Z,46.42
2022-12-08T06:49:09.358Z,47.09
2022-12-08T06:50:09.326Z,46.5
2022-12-08T06:51:09.348Z,45.87
2022-12-08T06:52:09.347Z,44.69
2022-12-08T06:53:09.334Z,44.37
2022-12-08T06:54:09.348Z,46.29
2022-12-08T06:55:09.338Z,46.46
2022-12-08T06:56:09.340Z,46.01
2022-12-08T06:57:09.322Z,46.12
2022-12-08T06:58:09.339Z,46.63
2022-12-08T06:59:09.363Z,45.06
2022-12-08T07:00:09.349Z,44.86
2022-12-08T07:01:09.439Z,44.32
2022-12-08T07:02:09.487Z,44.68
2022-12-08T07:03:09.339Z,45.59
2022-12-08T07:04:09.369Z,45.78
2022-12-08T07:05:09.333Z,46.36
2022-12-08T07:06:09.333Z,46.83
2022-12-08T07:07:09.328Z,47.76
2022-12-08T07:08:09.464Z,46.25
2022-12-08T07:09:09.347Z,46.68
2022-12-08T07:10:09.337Z,46.68
2022-12-08T07:11:09.319Z,46.18
2022-12-08T07:12:09.338Z,44.35
2022-12-08T07:13:09.338Z,45.21
2022-12-08T07:14:09.359Z,45.62
2022-12-08T07:15:09.338Z,45.19
2022-12-08T07:16:09.357Z,44.8
2022-12-08T07:17:09.407Z,44.84
2022-12-08T07:18:09.341Z,45.96
2022-12-08T07:19:09.370Z,46.43
2022-12-08T07:20:09.319Z,47.48
2022-12-08T07:21:09.334Z,47.33
2022-12-08T07:22:09.324Z,46.26
2022-12-08T07:23:09.325Z,45.3
2022-12-08T07:24:09.343Z,45.25
2022-12-08T07:25:09.317Z,46.44
2022-12-08T07:26:09.321Z,46.61
2022-12-08T07:27:09.319Z,45.12
2022-12-08T07:28:09.333Z,44.64
2022-12-08T07:29:09.331Z,45.77
2022-12-08T07:30:09.317Z,46.32
2022-12-08T07:31:09.427Z,45.35
2022-12-08T07:32:09.318Z,45.89
2022-12-08T07:33:09.318Z,45.42
2022-12-08T07:34:09.340Z,45.33
2022-12-08T07:35:09.327Z,46.18
2022-12-08T07:36:09.328Z,45.88
2022-12-08T07:37:09.325Z,46.56
2022-12-08T07:38:09.327Z,47.22
2022-12-08T07:39:09.342Z,45.68
2022-12-08T07:40:09.334Z,45.63
2022-12-08T07:41:09.345Z,46.21
2022-12-08T07:42:09.337Z,45.59
2022-12-08T07:43:09.338Z,44.43
2022-12-08T07:44:09.399Z,44.43
2022-12-08T07:45:09.323Z,46.32
2022-12-08T07:46:09.371Z,45.47
2022-12-08T07:47:09.332Z,45.03
2022-12-08T07:48:09.336Z,44.23
2022-12-08T07:49:09.351Z,44.23
2022-12-08T07:50:09.320Z,45.61
2022-12-08T07:51:09.337Z,45.14
2022-12-08T07:52:09.322Z,45.14
2022-12-08T07:53:09.339Z,45.96
2022-12-08T07:54:09.355Z,46.41
2022-12-08T07:55:09.341Z,45.31
2022-12-08T07:56:09.342Z,44.86
2022-12-08T07:57:09.340Z,44.78
2022-12-08T07:58:09.344Z,46.04
2022-12-08T07:59:09.362Z,46.41
2022-12-08T08:00:09.321Z,45.55
2022-12-08T08:01:09.471Z,46.32
2022-12-08T08:02:23.315Z,45.26
2022-12-08T08:03:09.421Z,45.26
2022-12-08T08:04:09.428Z,46.21
2022-12-08T08:05:09.420Z,44.07
2022-12-08T08:06:09.337Z,43.8
2022-12-08T08:07:09.329Z,44.32
2022-12-08T08:08:09.405Z,44.4
2022-12-08T08:09:09.335Z,44.46
2022-12-08T08:10:09.326Z,45.31
2022-12-08T08:11:17.416Z,45.49
2022-12-08T08:12:30.379Z,45.19
2022-12-08T08:13:09.337Z,44.67
2022-12-08T08:14:09.355Z,44.76
2022-12-08T08:15:09.413Z,45.13
2022-12-08T08:16:09.475Z,45.81
2022-12-08T08:17:09.498Z,44.44
2022-12-08T08:18:09.341Z,45.43
2022-12-08T08:19:09.355Z,42.95
2022-12-08T08:20:09.333Z,42.95
2022-12-08T08:21:43.094Z,44.2
2022-12-08T08:22:09.345Z,44.38
2022-12-08T08:23:09.336Z,43.94
2022-12-08T08:24:09.350Z,43.78
2022-12-08T08:25:09.329Z,43.97
2022-12-08T08:26:09.336Z,43.72
2022-12-08T08:27:09.328Z,43.32
2022-12-08T08:28:09.340Z,42.89
2022-12-08T08:29:09.377Z,43.91
2022-12-08T08:30:09.322Z,43.66
2022-12-08T08:31:09.443Z,44.25
2022-12-08T08:32:09.334Z,43.56
2022-12-08T08:33:09.316Z,44.48
2022-12-08T08:34:09.345Z,44.72
2022-12-08T08:35:09.321Z,44.54
2022-12-08T08:36:09.337Z,44.44
2022-12-08T08:37:09.405Z,44.06
2022-12-08T08:38:09.321Z,44.5
2022-12-08T08:39:09.335Z,44.09
2022-12-08T08:40:09.330Z,43.72
2022-12-08T08:41:09.320Z,43.99
2022-12-08T08:42:09.321Z,44.56
2022-12-08T08:43:09.316Z,43.4
2022-12-08T08:44:09.338Z,42.92
2022-12-08T08:45:09.323Z,42.89
2022-12-08T08:46:09.409Z,42.98
2022-12-08T08:47:09.322Z,43.39
2022-12-08T08:48:09.315Z,42.5
2022-12-08T08:49:09.341Z,42.04
2022-12-08T08:50:09.683Z,43.02
2022-12-08T08:51:09.322Z,43.21
2022-12-08T08:52:09.324Z,42.3
2022-12-08T08:53:09.331Z,44.08
2022-12-08T08:54:09.345Z,43.49
2022-12-08T08:55:09.335Z,42.53
2022-12-08T08:56:09.335Z,42.23
2022-12-08T08:57:09.346Z,42.7
2022-12-08T08:58:09.340Z,42.49
2022-12-08T08:59:09.354Z,42.75
2022-12-08T09:00:09.329Z,43.16
2022-12-08T09:01:09.352Z,43.49
2022-12-08T09:02:09.374Z,43.37
2022-12-08T09:03:09.335Z,42.23
2022-12-08T09:04:09.384Z,42.88
2022-12-08T09:05:09.466Z,42.92
2022-12-08T09:06:09.421Z,42.13
2022-12-08T09:07:09.324Z,42.64
2022-12-08T09:08:09.448Z,42.64
2022-12-08T09:09:09.353Z,42.08
2022-12-08T09:10:09.496Z,43.75
2022-12-08T09:11:09.344Z,44.07
2022-12-08T09:12:09.343Z,43.09
2022-12-08T09:13:09.343Z,43.05
2022-12-08T09:14:09.357Z,42.75
2022-12-08T09:15:09.337Z,42.17
2022-12-08T09:16:09.422Z,42.99
2022-12-08T09:17:09.342Z,42.41
2022-12-08T09:18:09.337Z,41.32
2022-12-08T09:19:09.357Z,41.81
2022-12-08T09:20:09.334Z,43.6
2022-12-08T09:21:09.339Z,41.96
2022-12-08T09:22:09.335Z,42.65
2022-12-08T09:23:09.324Z,41.58
2022-12-08T09:24:09.444Z,41.16
2022-12-08T09:25:09.344Z,41.48
2022-12-08T09:26:09.339Z,42.99
2022-12-08T09:27:09.335Z,42.61
2022-12-08T09:28:09.337Z,42.72
2022-12-08T09:29:09.353Z,42.63
2022-12-08T09:30:09.430Z,42.31
2022-12-08T09:31:09.411Z,42.81
2022-12-08T09:32:09.344Z,43.29
2022-12-08T09:33:09.342Z,43.42
2022-12-08T09:34:09.334Z,43.42
2022-12-08T09:35:09.334Z,41.91
2022-12-08T09:36:09.343Z,43.9
2022-12-08T09:37:09.340Z,43.9
2022-12-08T09:38:09.348Z,43.43
2022-12-08T09:39:09.334Z,43.47
2022-12-08T09:40:09.322Z,42.9
2022-12-08T09:41:09.341Z,41.95
2022-12-08T09:42:09.339Z,42.16
2022-12-08T09:43:09.338Z,42.79
2022-12-08T09:44:09.353Z,41.49
2022-12-08T09:45:09.341Z,41.92
2022-12-08T09:46:09.429Z,41.97
2022-12-08T09:47:09.424Z,41.79
2022-12-08T09:48:09.318Z,42.26
2022-12-08T09:49:09.360Z,43.12
2022-12-08T09:50:09.455Z,42.6
2022-12-08T09:51:09.319Z,42.23
2022-12-08T09:52:09.334Z,42.95
2022-12-08T09:53:09.316Z,41.87
2022-12-08T09:54:09.337Z,41.95
2022-12-08T09:55:09.353Z,41.95
2022-12-08T09:56:09.321Z,41.31
2022-12-08T09:57:09.323Z,42.54
2022-12-08T09:58:09.319Z,42.13
2022-12-08T09:59:09.337Z,41.9
2022-12-08T10:00:09.428Z,41.22
2022-12-08T10:01:09.448Z,41.14
2022-12-08T10:02:09.353Z,42.19
2022-12-08T10:03:13.597Z,41.51
2022-12-08T10:04:09.367Z,42.87
2022-12-08T10:05:09.325Z,41.41
2022-12-08T10:06:09.321Z,42.62
2022-12-08T10:07:09.328Z,41.63
2022-12-08T10:08:09.365Z,42.01
2022-12-08T10:09:12.425Z,42.3
2022-12-08T10:10:09.330Z,42.18
2022-12-08T10:11:09.329Z,42.18
2022-12-08T10:12:09.349Z,42.18
2022-12-08T10:13:09.321Z,42.8
2022-12-08T10:14:09.361Z,43.33
2022-12-08T10:15:09.338Z,42.21
2022-12-08T10:16:09.417Z,41.84
2022-12-08T10:17:09.427Z,41.94
2022-12-08T10:18:09.333Z,41.09
2022-12-08T10:19:09.356Z,41.73
2022-12-08T10:20:09.334Z,42.2
2022-12-08T10:21:09.328Z,41.98
2022-12-08T10:22:09.331Z,41.96
2022-12-08T10:23:09.353Z,42.42
2022-12-08T10:24:09.351Z,42.55
2022-12-08T10:25:09.346Z,42.49
2022-12-08T10:26:09.346Z,42.44
2022-12-08T10:27:09.334Z,41.87
2022-12-08T10:28:09.317Z,43.21
2022-12-08T10:29:09.351Z,42.95
2022-12-08T10:30:09.347Z,41.99
2022-12-08T10:31:09.424Z,41.69
2022-12-08T10:32:09.359Z,41.9
2022-12-08T10:33:09.331Z,41.64
2022-12-08T10:34:09.356Z,42.32
2022-12-08T10:35:09.338Z,42.21
2022-12-08T10:36:09.343Z,42.5
2022-12-08T10:37:09.339Z,42.96
2022-12-08T10:38:09.352Z,42.4
2022-12-08T10:39:09.332Z,42.35
2022-12-08T10:40:09.332Z,41.68
2022-12-08T10:41:09.347Z,42.04
2022-12-08T10:42:09.344Z,42.33
2022-12-08T10:43:09.337Z,41.71
2022-12-08T10:44:09.353Z,41.79
2022-12-08T10:45:09.356Z,41.05
2022-12-08T10:46:09.469Z,41.98
2022-12-08T10:47:09.463Z,41.91
2022-12-08T10:48:09.343Z,41.95
2022-12-08T10:49:09.351Z,41.35
2022-12-08T10:50:09.336Z,41.38
2022-12-08T10:51:09.351Z,42.41
2022-12-08T10:52:09.347Z,42.58
2022-12-08T10:53:09.340Z,42.27
2022-12-08T10:54:09.353Z,41.97
2022-12-08T10:55:09.328Z,41.78
2022-12-08T10:56:09.342Z,41.5
2022-12-08T10:57:09.335Z,43.68
2022-12-08T10:58:09.339Z,42.53
2022-12-08T10:59:09.339Z,42.91
2022-12-08T11:00:13.826Z,42.48
2022-12-08T11:01:09.392Z,42.26
2022-12-08T11:02:09.360Z,42.33
2022-12-08T11:03:09.384Z,41.93
2022-12-08T11:04:09.511Z,41.71
2022-12-08T11:05:09.338Z,42.84
2022-12-08T11:06:11.050Z,43.7
2022-12-08T11:07:09.351Z,42.61
2022-12-08T11:08:09.377Z,41.83
2022-12-08T11:09:09.356Z,41.75
2022-12-08T11:10:09.329Z,41.85
2022-12-08T11:11:09.320Z,41.79
2022-12-08T11:12:09.317Z,41.84
2022-12-08T11:13:09.327Z,42.17
2022-12-08T11:14:09.346Z,42.38
2022-12-08T11:15:09.316Z,41.78
2022-12-08T11:16:09.402Z,40.95
2022-12-08T11:17:09.316Z,41.96
2022-12-08T11:18:09.328Z,41.72
2022-12-08T11:19:09.337Z,42.13
2022-12-08T11:20:09.657Z,42.6
2022-12-08T11:21:09.327Z,42.48
2022-12-08T11:22:09.331Z,42.84
2022-12-08T11:23:09.321Z,42.22
2022-12-08T11:24:09.334Z,42.29
2022-12-08T11:25:09.323Z,42.69
2022-12-08T11:26:09.327Z,42.76
2022-12-08T11:27:09.323Z,42.89
2022-12-08T11:28:09.324Z,42.69
2022-12-08T11:29:09.440Z,43.23
2022-12-08T11:30:14.098Z,43.22
2022-12-08T11:31:09.398Z,42.6
2022-12-08T11:32:09.489Z,43.46
2022-12-08T11:33:09.333Z,44.1
2022-12-08T11:34:09.364Z,43.53
2022-12-08T11:35:09.318Z,43.54
2022-12-08T11:36:09.341Z,43.31
2022-12-08T11:37:09.339Z,43.14
2022-12-08T11:38:21.016Z,43.65
2022-12-08T11:39:09.356Z,42.65
2022-12-08T11:40:09.616Z,43.14
2022-12-08T11:41:14.226Z,43.19
2022-12-08T11:42:09.343Z,42.98
2022-12-08T11:43:09.330Z,43.17
2022-12-08T11:44:09.349Z,43.2
2022-12-08T11:45:09.336Z,43.09
2022-12-08T11:46:09.433Z,42.52
2022-12-08T11:47:09.358Z,42.3
2022-12-08T11:48:09.350Z,42.07
2022-12-08T11:49:09.349Z,42.15
2022-12-08T11:50:09.347Z,42.34
2022-12-08T11:51:09.340Z,43.61
2022-12-08T11:52:09.336Z,43.39
2022-12-08T11:53:09.319Z,42.61
2022-12-08T11:54:09.353Z,42.7
2022-12-08T11:55:09.367Z,42.37
2022-12-08T11:56:09.339Z,42.37
2022-12-08T11:57:09.345Z,42.15
2022-12-08T11:58:09.403Z,41.56
2022-12-08T11:59:09.351Z,40.58
2022-12-08T12:00:09.332Z,40.72
2022-12-08T12:01:09.353Z,40.84
2022-12-08T12:02:09.365Z,41.75
2022-12-08T12:03:09.409Z,41.98
2022-12-08T12:04:09.510Z,41.29
2022-12-08T12:05:09.348Z,40.38
2022-12-08T12:06:23.898Z,40.6
2022-12-08T12:07:09.328Z,41
2022-12-08T12:08:09.473Z,41.23
2022-12-08T12:09:09.358Z,42.83
2022-12-08T12:10:09.329Z,42.46
2022-12-08T12:11:09.349Z,42.46
2022-12-08T12:12:09.340Z,42.16
2022-12-08T12:13:09.328Z,42.23
2022-12-08T12:14:09.368Z,42.29
2022-12-08T12:15:09.332Z,41.82
2022-12-08T12:16:09.394Z,41.72
2022-12-08T12:17:09.401Z,41.18
2022-12-08T12:18:14.851Z,41.18
2022-12-08T12:19:09.355Z,42.45
2022-12-08T12:20:09.321Z,43.1
2022-12-08T12:21:09.319Z,43.1
2022-12-08T12:22:09.341Z,43.89
2022-12-08T12:23:09.315Z,42.76
2022-12-08T12:24:09.346Z,42.4
2022-12-08T12:25:09.327Z,42.37
2022-12-08T12:26:09.315Z,43.34
2022-12-08T12:27:09.327Z,44.25
2022-12-08T12:28:09.327Z,41.78
2022-12-08T12:29:09.328Z,41.85
2022-12-08T12:30:09.454Z,42.05
2022-12-08T12:31:09.396Z,41.9
2022-12-08T12:32:09.316Z,41.84
2022-12-08T12:33:09.319Z,42.6
2022-12-08T12:34:09.336Z,42.56
2022-12-08T12:35:09.316Z,43.41
2022-12-08T12:36:09.329Z,43.61
2022-12-08T12:37:09.323Z,42.62
2022-12-08T12:38:09.322Z,41.47
2022-12-08T12:39:09.334Z,42.87
2022-12-08T12:40:09.341Z,43.24
2022-12-08T12:41:09.319Z,42.46
2022-12-08T12:42:09.328Z,43.83
2022-12-08T12:43:09.341Z,42.39
2022-12-08T12:44:09.341Z,42.89
2022-12-08T12:45:09.349Z,42.88
2022-12-08T12:46:09.441Z,42.3
2022-12-08T12:47:09.342Z,42.61
2022-12-08T12:48:09.334Z,43.87
2022-12-08T12:49:09.342Z,42.86
2022-12-08T12:50:09.334Z,42.7
2022-12-08T12:51:09.326Z,42.04
2022-12-08T12:52:09.335Z,43.19
2022-12-08T12:53:13.809Z,42.76
2022-12-08T12:54:09.348Z,42.49
2022-12-08T12:55:09.337Z,43.29
2022-12-08T12:56:09.345Z,43.23